Time;durP1;ratioP1;P1;durP2;ratioP2;P2;SDS_P1;SDS_P2;PMS_P1;PMS_P2;Temp;Humidity;BMP_temperature;BMP_pressure;BME280_temperature;BME280_humidity;BME280_pressure;Samples;Min_cycle;Max_cycle;Signal;HPM_P1;HPM_P2
2022/02/27 00:01:22;;;;;;;6.63;1.90;;;;;;;2.38;63.56;100990.06;1795972;78;20870;-55
2022/02/27 00:03:48;;;;;;;7.47;2.50;;;;;;;2.40;63.51;100984.28;1795185;78;20906;-56
2022/02/27 00:06:17;;;;;;;7.17;1.77;;;;;;;2.41;63.55;100994.04;1795200;77;20922;-55
2022/02/27 00:08:43;;;;;;;9.40;2.13;;;;;;;2.40;63.57;100985.61;1790566;78;21139;-57
2022/02/27 00:11:11;;;;;;;6.03;2.00;;;;;;;2.41;63.46;100992.70;1792766;77;20985;-57
2022/02/27 00:13:38;;;;;;;8.97;1.40;;;;;;;2.41;63.47;100986.95;1792655;78;21621;-55
2022/02/27 00:16:05;;;;;;;7.60;1.87;;;;;;;2.41;63.50;100988.72;1790178;78;21584;-55
2022/02/27 00:18:33;;;;;;;8.67;1.63;;;;;;;2.40;63.51;100990.93;1798813;78;21310;-54
2022/02/27 00:21:00;;;;;;;5.43;1.70;;;;;;;2.38;63.58;100989.63;1791643;78;21106;-55
2022/02/27 00:23:27;;;;;;;9.03;2.20;;;;;;;2.35;63.60;100987.38;1791781;78;21679;-56
2022/02/27 00:25:53;;;;;;;11.60;2.90;;;;;;;2.33;63.62;100987.36;1789996;78;21018;-56
2022/02/27 00:28:20;;;;;;;4.30;2.03;;;;;;;2.31;63.63;100990.88;1788848;78;21131;-57
2022/02/27 00:30:46;;;;;;;5.80;1.47;;;;;;;2.27;63.67;100993.55;1793372;78;21350;-54
2022/02/27 00:33:12;;;;;;;5.63;1.63;;;;;;;2.23;63.62;100997.48;1791219;78;21180;-57
2022/02/27 00:35:39;;;;;;;7.57;1.70;;;;;;;2.18;63.68;100993.50;1792929;78;20928;-55
2022/02/27 00:38:07;;;;;;;5.60;1.47;;;;;;;2.12;63.77;100995.24;1796493;78;20866;-57
2022/02/27 00:40:35;;;;;;;6.53;1.90;;;;;;;2.08;63.91;100998.73;1793950;78;20906;-57
2022/02/27 00:43:01;;;;;;;4.37;1.33;;;;;;;2.02;64.12;100998.28;1792175;78;21544;-56
2022/02/27 00:45:28;;;;;;;6.53;2.10;;;;;;;2.00;64.25;100997.38;1791794;78;21469;-58
2022/02/27 00:47:54;;;;;;;6.30;2.13;;;;;;;1.97;64.31;100989.37;1788224;78;21678;-57
2022/02/27 00:50:20;;;;;;;10.63;2.40;;;;;;;1.95;64.48;100993.81;1789185;78;21672;-55
2022/02/27 00:52:47;;;;;;;7.97;1.50;;;;;;;1.94;64.60;100999.11;1794065;78;21041;-57
2022/02/27 00:55:13;;;;;;;7.17;1.70;;;;;;;1.90;64.72;100992.87;1787722;78;21025;-55
2022/02/27 00:57:39;;;;;;;5.50;1.97;;;;;;;1.87;64.86;100988.89;1790730;78;21794;-57
2022/02/27 01:00:08;;;;;;;7.33;2.37;;;;;;;1.84;64.94;100995.06;1785297;78;21061;-55
2022/02/27 01:02:35;;;;;;;9.37;1.77;;;;;;;1.79;65.06;100991.91;1783907;79;21006;-57
2022/02/27 01:05:02;;;;;;;5.23;2.13;;;;;;;1.74;65.25;100982.59;1784415;79;21084;-55
2022/02/27 01:07:28;;;;;;;5.73;2.23;;;;;;;1.73;65.32;100986.56;1783198;79;21385;-57
2022/02/27 01:09:54;;;;;;;4.87;1.70;;;;;;;1.71;65.40;100987.88;1783561;79;21792;-55
2022/02/27 01:12:21;;;;;;;3.57;0.90;;;;;;;1.68;65.41;100981.67;1782482;79;21382;-55
2022/02/27 01:14:47;;;;;;;5.47;1.30;;;;;;;1.63;65.38;100979.41;1784791;79;22432;-55
2022/02/27 01:17:15;;;;;;;5.87;1.30;;;;;;;1.58;65.45;100987.78;1784347;79;21444;-55
2022/02/27 01:19:42;;;;;;;2.90;1.20;;;;;;;1.51;65.50;100989.51;1786548;79;21324;-57
2022/02/27 01:22:08;;;;;;;7.23;1.57;;;;;;;1.44;65.72;100991.23;1781256;79;21528;-55
2022/02/27 01:24:36;;;;;;;8.13;1.33;;;;;;;1.40;65.90;100988.52;1783007;79;21544;-55
2022/02/27 01:27:03;;;;;;;5.60;1.60;;;;;;;1.37;65.96;100992.46;1782703;79;21844;-56
2022/02/27 01:29:29;;;;;;;4.97;2.07;;;;;;;1.32;65.90;100992.87;1784117;79;21018;-57
2022/02/27 01:31:56;;;;;;;9.90;1.60;;;;;;;1.27;66.13;100992.85;1783845;79;21088;-54
2022/02/27 01:34:22;;;;;;;9.20;1.20;;;;;;;1.24;66.17;100988.83;1782067;79;21088;-56
2022/02/27 01:36:49;;;;;;;7.30;1.73;;;;;;;1.20;66.32;100994.08;1783666;79;21096;-57
2022/02/27 01:39:16;;;;;;;7.00;1.20;;;;;;;1.16;66.46;100986.98;1780676;79;21009;-55
2022/02/27 01:41:42;;;;;;;7.00;1.20;;;;;;;1.09;66.51;100986.94;1785745;79;21067;-56
2022/02/27 01:44:09;;;;;;;6.43;1.30;;;;;;;1.06;66.65;100988.22;1782233;79;21085;-55
2022/02/27 01:46:35;;;;;;;4.40;1.27;;;;;;;1.02;66.76;100983.74;1783086;79;21095;-56
2022/02/27 01:49:02;;;;;;;5.30;1.67;;;;;;;0.97;66.86;100985.47;1786024;79;21092;-56
2022/02/27 01:51:29;;;;;;;5.67;1.13;;;;;;;0.92;67.02;100986.31;1783776;79;22277;-57
2022/02/27 01:53:55;;;;;;;4.53;1.03;;;;;;;0.87;67.16;100984.92;1782778;79;21535;-56
2022/02/27 01:56:22;;;;;;;3.00;1.13;;;;;;;0.83;67.31;100981.80;1781798;79;21398;-56
2022/02/27 01:58:49;;;;;;;5.33;1.60;;;;;;;0.79;67.43;100983.06;1782864;79;21072;-55
2022/02/27 02:01:15;;;;;;;2.60;1.10;;;;;;;0.73;67.58;100974.19;1783475;79;21018;-54
2022/02/27 02:03:41;;;;;;;8.10;1.03;;;;;;;0.71;67.70;100977.25;1783777;79;21092;-54
2022/02/27 02:06:08;;;;;;;5.40;1.20;;;;;;;0.67;67.88;100977.21;1781604;79;21060;-54
2022/02/27 02:08:35;;;;;;;6.23;1.10;;;;;;;0.64;67.91;100973.19;1781258;79;21037;-55
2022/02/27 02:11:03;;;;;;;3.70;1.00;;;;;;;0.59;67.96;100978.45;1788086;79;21101;-55
2022/02/27 02:13:30;;;;;;;7.23;1.20;;;;;;;0.54;68.06;100981.47;1781902;79;21094;-55
2022/02/27 02:15:59;;;;;;;3.43;1.00;;;;;;;0.49;68.17;100976.56;1784668;79;21383;-55
2022/02/27 02:18:39;;;;;;;6.37;1.63;;;;;;;0.45;68.27;100973.41;1785206;79;20875;-54
2022/02/27 02:21:07;;;;;;;6.13;1.47;;;;;;;0.43;68.40;100972.92;1785541;79;20941;-53
2022/02/27 02:23:34;;;;;;;6.57;1.13;;;;;;;0.40;68.47;100970.27;1790043;79;21067;-55
2022/02/27 02:26:02;;;;;;;5.20;0.90;;;;;;;0.34;68.55;100974.59;1782367;79;21748;-55
2022/02/27 02:28:29;;;;;;;2.60;0.70;;;;;;;0.31;68.62;100982.52;1786794;79;21370;-55
2022/02/27 02:30:56;;;;;;;6.23;0.87;;;;;;;0.25;68.56;100984.21;1782323;79;21723;-55
2022/02/27 02:33:36;;;;;;;2.87;0.80;;;;;;;0.21;68.69;100981.05;1785384;79;21108;-55
2022/02/27 02:36:05;;;;;;;7.63;1.23;;;;;;;0.16;68.74;100984.09;1790470;79;21460;-55
2022/02/27 02:38:31;;;;;;;4.57;0.90;;;;;;;0.08;68.77;100991.04;1786488;79;20933;-54
2022/02/27 02:40:58;;;;;;;5.47;0.80;;;;;;;0.03;68.87;100996.69;1786695;79;20891;-54
2022/02/27 02:43:24;;;;;;;4.63;0.93;;;;;;;-0.01;69.03;100992.69;1784520;79;21385;-55
2022/02/27 02:45:53;;;;;;;6.03;1.10;;;;;;;-0.05;69.13;100994.83;1787455;79;22069;-55
2022/02/27 02:48:20;;;;;;;3.97;0.90;;;;;;;-0.08;69.22;100992.13;1784993;79;21107;-54
2022/02/27 02:50:48;;;;;;;2.77;1.10;;;;;;;-0.10;69.21;100995.20;1765030;79;20993;-54
2022/02/27 02:53:14;;;;;;;4.90;1.33;;;;;;;-0.13;69.38;101002.20;1785913;79;20946;-54
2022/02/27 02:55:41;;;;;;;3.50;1.00;;;;;;;-0.14;69.43;101005.70;1785590;79;20942;-54
2022/02/27 02:58:07;;;;;;;4.53;1.33;;;;;;;-0.14;69.54;100999.98;1787376;79;21582;-54
2022/02/27 03:00:33;;;;;;;4.53;1.10;;;;;;;-0.13;69.76;100999.55;1784609;79;21037;-54
2022/02/27 03:03:00;;;;;;;5.13;1.07;;;;;;;-0.10;69.83;101001.83;1783564;79;20942;-54
2022/02/27 03:05:26;;;;;;;3.00;0.90;;;;;;;-0.10;69.87;101003.58;1784337;79;21436;-54
2022/02/27 03:07:53;;;;;;;3.97;1.23;;;;;;;-0.10;69.97;101007.55;1784678;79;20898;-53
2022/02/27 03:10:21;;;;;;;5.27;1.17;;;;;;;-0.08;70.10;101004.47;1791337;79;20945;-54
2022/02/27 03:12:48;;;;;;;7.07;1.07;;;;;;;-0.07;70.25;101008.47;1788177;79;21169;-54
2022/02/27 03:15:14;;;;;;;8.07;1.00;;;;;;;-0.05;70.31;101010.70;1787155;79;21044;-54
2022/02/27 03:17:42;;;;;;;4.90;1.00;;;;;;;-0.05;70.40;101014.67;1787521;79;21052;-54
2022/02/27 03:20:10;;;;;;;4.00;1.10;;;;;;;-0.02;70.52;101013.84;1782557;79;21084;-54
2022/02/27 03:22:38;;;;;;;6.53;1.77;;;;;;;-0.01;70.58;101015.19;1789421;79;20906;-54
2022/02/27 03:25:05;;;;;;;3.53;1.20;;;;;;;0.03;70.68;101012.56;1786993;79;21314;-54
2022/02/27 03:27:31;;;;;;;3.00;1.10;;;;;;;0.05;70.65;101017.45;1783350;79;21013;-54
2022/02/27 03:29:58;;;;;;;6.60;1.10;;;;;;;0.05;70.73;101018.78;1782525;79;21739;-54
2022/02/27 03:32:24;;;;;;;4.23;1.53;;;;;;;0.06;70.79;101023.21;1782064;79;21319;-54
2022/02/27 03:34:50;;;;;;;5.40;1.57;;;;;;;0.05;70.91;101019.67;1783315;79;22329;-54
2022/02/27 03:37:16;;;;;;;3.60;1.30;;;;;;;0.06;71.01;101022.78;1783274;79;22576;-54
2022/02/27 03:39:43;;;;;;;3.30;1.30;;;;;;;0.09;71.09;101032.50;1780353;79;21021;-54
2022/02/27 03:42:10;;;;;;;3.57;1.20;;;;;;;0.09;71.17;101028.09;1784771;79;21053;-54
2022/02/27 03:44:36;;;;;;;3.57;1.10;;;;;;;0.11;71.24;101031.66;1787453;79;20915;-54
2022/02/27 03:47:03;;;;;;;5.93;1.10;;;;;;;0.13;71.31;101031.27;1784426;79;20965;-54
2022/02/27 03:49:29;;;;;;;6.00;1.40;;;;;;;0.15;71.35;101033.94;1785772;79;21459;-54
2022/02/27 03:51:55;;;;;;;3.83;1.50;;;;;;;0.18;71.42;101040.58;1783396;79;22512;-54
2022/02/27 03:54:22;;;;;;;6.27;1.40;;;;;;;0.18;71.45;101044.55;1781813;79;21401;-54
2022/02/27 03:56:48;;;;;;;2.60;1.10;;;;;;;0.19;71.49;101040.60;1782520;79;21108;-54
2022/02/27 03:59:15;;;;;;;4.73;1.60;;;;;;;0.19;71.59;101048.55;1783384;79;21123;-54
2022/02/27 04:01:41;;;;;;;3.47;1.27;;;;;;;0.22;71.61;101048.60;1782490;79;21139;-54
2022/02/27 04:04:08;;;;;;;5.77;1.50;;;;;;;0.25;71.56;101049.09;1781090;79;21052;-54
2022/02/27 04:06:34;;;;;;;5.73;1.33;;;;;;;0.26;71.64;101055.70;1786242;79;21017;-53
2022/02/27 04:09:00;;;;;;;13.40;5.30;;;;;;;0.29;71.65;101057.52;1783433;79;21072;-54
2022/02/27 04:11:27;;;;;;;13.03;4.73;;;;;;;0.30;71.74;101058.87;1784941;79;21366;-54
2022/02/27 04:13:54;;;;;;;17.77;6.07;;;;;;;0.35;71.85;101064.21;1785001;79;22068;-54
2022/02/27 04:16:22;;;;;;;14.93;5.97;;;;;;;0.36;71.92;101058.94;1786249;79;21006;-54
2022/02/27 04:18:49;;;;;;;9.60;4.30;;;;;;;0.42;72.10;101057.27;1783317;79;21033;-54
2022/02/27 04:21:15;;;;;;;13.00;5.93;;;;;;;0.47;72.19;101061.75;1786223;79;21026;-54
2022/02/27 04:23:42;;;;;;;15.93;4.93;;;;;;;0.52;72.19;101058.70;1781879;79;21025;-54
2022/02/27 04:26:08;;;;;;;12.60;5.70;;;;;;;0.58;72.19;101056.59;1784668;79;21129;-54
2022/02/27 04:28:34;;;;;;;11.60;5.07;;;;;;;0.61;72.16;101061.47;1783710;79;21594;-54
2022/02/27 04:31:01;;;;;;;12.73;5.30;;;;;;;0.64;72.22;101071.23;1781389;79;22464;-54
2022/02/27 04:33:27;;;;;;;9.70;4.77;;;;;;;0.66;72.18;101069.07;1779135;79;21677;-54
2022/02/27 04:35:53;;;;;;;14.23;5.30;;;;;;;0.72;72.19;101077.52;1781038;79;22476;-54
2022/02/27 04:38:20;;;;;;;11.73;4.83;;;;;;;0.74;72.11;101074.03;1782825;79;21128;-54
2022/02/27 04:40:47;;;;;;;11.37;4.73;;;;;;;0.77;72.14;101085.08;1782487;79;21084;-54
2022/02/27 04:43:13;;;;;;;12.80;4.20;;;;;;;0.81;72.07;101086.02;1783164;79;21037;-54
2022/02/27 04:45:39;;;;;;;8.00;2.93;;;;;;;0.84;72.06;101079.02;1783772;79;21034;-54
2022/02/27 04:48:06;;;;;;;8.90;4.20;;;;;;;0.87;71.95;101080.35;1784884;79;21021;-54
2022/02/27 04:50:33;;;;;;;10.27;3.20;;;;;;;0.90;71.94;101079.08;1784080;79;23161;-54
2022/02/27 04:53:00;;;;;;;8.07;3.53;;;;;;;0.94;71.88;101078.66;1783500;79;21065;-53
2022/02/27 04:55:26;;;;;;;9.83;3.20;;;;;;;0.97;71.82;101082.68;1784394;79;21512;-53
2022/02/27 04:57:53;;;;;;;10.27;3.67;;;;;;;1.02;71.80;101080.99;1781307;79;21476;-53
2022/02/27 05:00:20;;;;;;;13.13;4.00;;;;;;;1.05;71.71;101074.37;1784016;78;21476;-54
2022/02/27 05:02:46;;;;;;;8.50;3.13;;;;;;;1.08;71.62;101083.70;1783067;79;21448;-54
2022/02/27 05:05:12;;;;;;;12.30;2.67;;;;;;;1.10;71.61;101081.97;1782262;79;22152;-54
2022/02/27 05:07:39;;;;;;;8.10;3.07;;;;;;;1.11;71.60;101079.30;1782394;79;21275;-54
2022/02/27 05:10:08;;;;;;;8.93;3.47;;;;;;;1.13;71.51;101084.63;1785208;79;20997;-54
2022/02/27 05:12:38;;;;;;;8.50;3.03;;;;;;;1.15;71.43;101081.56;1786513;79;21196;-54
2022/02/27 05:15:06;;;;;;;7.83;2.63;;;;;;;1.19;71.36;101085.16;1781442;79;22601;-54
2022/02/27 05:17:33;;;;;;;13.07;4.00;;;;;;;1.21;71.33;101082.05;1784110;79;20996;-53
2022/02/27 05:19:59;;;;;;;8.87;2.50;;;;;;;1.22;71.27;101082.08;1785461;79;21077;-54
2022/02/27 05:22:26;;;;;;;7.67;3.03;;;;;;;1.23;71.24;101081.20;1782064;79;21079;-53
2022/02/27 05:24:52;;;;;;;8.13;2.70;;;;;;;1.26;71.19;101084.34;1782464;79;20998;-54
2022/02/27 05:27:18;;;;;;;9.33;2.60;;;;;;;1.27;71.14;101079.49;1785193;79;21455;-54
2022/02/27 05:29:45;;;;;;;8.80;2.90;;;;;;;1.30;71.15;101083.05;1782023;79;21382;-53
2022/02/27 05:32:11;;;;;;;9.37;2.87;;;;;;;1.33;71.04;101087.50;1782751;79;21651;-54
2022/02/27 05:34:37;;;;;;;10.27;3.37;;;;;;;1.33;71.00;101086.17;1784064;79;21507;-53
2022/02/27 05:37:03;;;;;;;11.97;3.60;;;;;;;1.36;70.98;101084.89;1782510;79;22591;-54
2022/02/27 05:39:30;;;;;;;11.73;2.70;;;;;;;1.38;71.00;101084.02;1782428;79;22320;-54
2022/02/27 05:41:56;;;;;;;9.33;3.47;;;;;;;1.41;70.92;101083.16;1781123;79;21286;-53
2022/02/27 05:44:23;;;;;;;11.00;3.80;;;;;;;1.42;70.90;101084.95;1783028;79;21511;-54
2022/02/27 05:46:51;;;;;;;8.00;3.50;;;;;;;1.46;70.83;101087.63;1781744;79;21001;-54
2022/02/27 05:49:18;;;;;;;10.40;3.90;;;;;;;1.48;70.80;101079.25;1780966;79;21041;-54
2022/02/27 05:51:47;;;;;;;8.80;3.03;;;;;;;1.53;70.72;101081.08;1781580;79;21036;-54
2022/02/27 05:54:14;;;;;;;7.97;3.67;;;;;;;1.55;70.69;101078.87;1787590;79;21377;-54
2022/02/27 05:56:40;;;;;;;12.17;3.50;;;;;;;1.60;70.57;101083.80;1789620;79;21302;-54
2022/02/27 05:59:06;;;;;;;10.23;3.77;;;;;;;1.63;70.46;101082.91;1784557;79;20926;-54
2022/02/27 06:01:33;;;;;;;6.57;3.33;;;;;;;1.65;70.46;101085.16;1784078;79;20933;-51
2022/02/27 06:04:00;;;;;;;10.20;3.87;;;;;;;1.68;70.41;101087.41;1782238;79;21110;-52
2022/02/27 06:06:26;;;;;;;11.77;3.90;;;;;;;1.69;70.24;101095.83;1782775;79;21017;-52
2022/02/27 06:08:52;;;;;;;8.70;3.37;;;;;;;1.67;70.14;101090.94;1783161;79;20895;-52
2022/02/27 06:11:18;;;;;;;16.47;4.07;;;;;;;1.67;70.10;101090.94;1782064;79;20945;-53
2022/02/27 06:13:45;;;;;;;8.00;4.00;;;;;;;1.69;70.05;101094.94;1782840;79;20902;-53
2022/02/27 06:16:11;;;;;;;9.37;4.03;;;;;;;1.69;69.99;101094.94;1785128;79;22101;-53
2022/02/27 06:18:37;;;;;;;9.70;4.13;;;;;;;1.69;69.92;101094.94;1780632;79;20972;-53
2022/02/27 06:21:04;;;;;;;13.13;4.47;;;;;;;1.71;69.89;101100.69;1780692;79;21344;-53
2022/02/27 06:23:31;;;;;;;10.80;4.73;;;;;;;1.73;69.89;101097.62;1783327;79;20962;-54
2022/02/27 06:25:57;;;;;;;15.43;5.53;;;;;;;1.76;69.87;101096.33;1786468;79;20926;-54
2022/02/27 06:28:23;;;;;;;14.17;6.20;;;;;;;1.78;69.85;101097.67;1782689;79;21401;-54
2022/02/27 06:30:50;;;;;;;10.07;5.83;;;;;;;1.82;69.79;101099.46;1789487;79;20879;-54
2022/02/27 06:33:16;;;;;;;13.47;7.03;;;;;;;1.84;69.75;101097.28;1783367;79;20902;-54
2022/02/27 06:35:42;;;;;;;17.47;7.07;;;;;;;1.89;69.76;101098.20;1779485;79;21053;-54
2022/02/27 06:38:08;;;;;;;18.37;6.87;;;;;;;1.94;69.72;101096.03;1779055;79;21021;-55
2022/02/27 06:40:35;;;;;;;20.20;8.70;;;;;;;2.00;69.63;101092.98;1779456;79;22088;-54
2022/02/27 06:43:05;;;;;;;17.20;6.17;;;;;;;2.05;69.46;101095.22;1780062;79;21511;-55
2022/02/27 06:45:32;;;;;;;17.63;8.13;;;;;;;2.10;69.20;101096.59;1778725;79;21473;-55
2022/02/27 06:47:59;;;;;;;16.97;7.43;;;;;;;2.15;69.10;101088.20;1780021;79;21334;-55
2022/02/27 06:50:25;;;;;;;13.70;6.80;;;;;;;2.20;69.02;101095.35;1780167;79;21578;-55
2022/02/27 06:52:52;;;;;;;15.67;6.57;;;;;;;2.25;68.86;101100.24;1782036;78;21159;-56
2022/02/27 06:55:19;;;;;;;15.20;6.47;;;;;;;2.28;68.68;101098.95;1779349;79;21100;-56
2022/02/27 06:57:47;;;;;;;10.87;5.43;;;;;;;2.32;68.40;101104.26;1780626;79;21085;-56
2022/02/27 07:00:15;;;;;;;12.80;5.33;;;;;;;2.31;68.31;101102.04;1785488;79;20982;-56
2022/02/27 07:02:43;;;;;;;14.17;5.73;;;;;;;2.33;68.19;101105.60;1783008;79;20903;-57
2022/02/27 07:05:09;;;;;;;13.23;5.23;;;;;;;2.39;68.04;101108.73;1782449;79;21163;-56
2022/02/27 07:07:36;;;;;;;11.27;4.80;;;;;;;2.42;67.76;101108.77;1782435;79;20925;-56
2022/02/27 07:10:04;;;;;;;13.53;4.80;;;;;;;2.43;67.49;101106.12;1782561;78;21033;-56
2022/02/27 07:12:32;;;;;;;11.47;5.80;;;;;;;2.42;67.29;101097.70;1779942;79;21084;-56
2022/02/27 07:14:58;;;;;;;10.73;4.13;;;;;;;2.44;67.17;101102.58;1780759;79;21447;-56
2022/02/27 07:17:25;;;;;;;14.63;5.30;;;;;;;2.43;67.04;101107.89;1781970;79;21741;-56
2022/02/27 07:19:52;;;;;;;12.40;4.60;;;;;;;2.42;67.04;101109.66;1781538;79;21330;-57
2022/02/27 07:22:19;;;;;;;10.70;5.13;;;;;;;2.42;67.15;101103.01;1778628;79;21084;-56
2022/02/27 07:24:46;;;;;;;12.00;4.73;;;;;;;2.47;67.10;101108.34;1780278;79;21535;-57
2022/02/27 07:27:13;;;;;;;8.83;3.77;;;;;;;2.52;66.90;101102.63;1782694;79;20894;-56
2022/02/27 07:29:41;;;;;;;12.73;4.13;;;;;;;2.57;66.39;101103.53;1780688;79;21444;-57
2022/02/27 07:32:11;;;;;;;12.83;4.37;;;;;;;2.59;66.20;101105.77;1780831;79;21310;-56
2022/02/27 07:34:38;;;;;;;7.50;3.93;;;;;;;2.63;66.20;101102.26;1778478;79;21093;-57
2022/02/27 07:37:06;;;;;;;11.63;4.57;;;;;;;2.70;65.91;101100.07;1778437;79;21510;-57
2022/02/27 07:39:33;;;;;;;10.67;3.37;;;;;;;2.79;65.85;101101.45;1778862;79;22072;-57
2022/02/27 07:41:59;;;;;;;13.93;4.50;;;;;;;2.87;65.28;101101.04;1780614;79;21006;-57
2022/02/27 07:44:27;;;;;;;10.27;3.33;;;;;;;2.97;64.91;101099.31;1781183;78;21060;-57
2022/02/27 07:46:54;;;;;;;6.00;2.50;;;;;;;3.06;64.59;101099.78;1782405;79;21492;-58
2022/02/27 07:49:21;;;;;;;6.17;2.27;;;;;;;3.14;63.90;101099.38;1782489;79;21025;-56
2022/02/27 07:51:48;;;;;;;6.73;1.83;;;;;;;3.23;63.52;101102.06;1780267;79;22318;-56
2022/02/27 07:54:14;;;;;;;9.73;3.60;;;;;;;3.34;62.93;101093.20;1779493;78;21090;-57
2022/02/27 07:56:41;;;;;;;3.30;1.20;;;;;;;3.43;61.62;101098.55;1724535;81;21080;-56
2022/02/27 07:59:07;;;;;;;2.57;1.10;;;;;;;3.53;60.70;101095.91;1740885;81;21064;-57
2022/02/27 08:01:34;;;;;;;0.60;0.30;;;;;;;3.63;58.62;101089.27;1727711;82;20978;-55
2022/02/27 08:04:00;;;;;;;0.90;0.50;;;;;;;3.74;55.87;101094.14;1724355;80;21081;-55
2022/02/27 08:06:27;;;;;;;0.67;0.30;;;;;;;3.85;54.12;101099.48;1724166;82;21064;-56
2022/02/27 08:08:53;;;;;;;0.80;0.20;;;;;;;3.92;52.04;101090.59;1725957;82;21360;-55
2022/02/27 08:11:19;;;;;;;1.07;0.20;;;;;;;4.01;52.06;101091.04;1723449;82;22180;-55
2022/02/27 08:16:11;;;;;;;0.77;0.20;;;;;;;4.25;51.22;101087.48;1852668;75;26439;-55
2022/02/27 08:18:39;;;;;;;0.30;0.10;;;;;;;4.30;50.20;101079.03;1809476;77;21436;-55
2022/02/27 08:21:06;;;;;;;0.37;0.10;;;;;;;4.43;49.45;101086.98;1806067;77;22277;-55
2022/02/27 08:23:32;;;;;;;0.40;0.10;;;;;;;4.52;48.13;101082.08;1807534;77;21029;-55
2022/02/27 08:26:00;;;;;;;0.40;0.10;;;;;;;4.58;47.46;101078.09;1805000;77;21033;-55
2022/02/27 08:28:28;;;;;;;0.40;0.20;;;;;;;4.58;47.14;101079.42;1772222;78;20968;-56
2022/02/27 08:30:56;;;;;;;0.27;0.10;;;;;;;4.55;47.31;101078.08;1773881;78;21024;-56
2022/02/27 08:33:23;;;;;;;0.40;0.20;;;;;;;4.53;46.70;101075.41;1767953;78;21090;-56
2022/02/27 08:35:50;;;;;;;1.93;0.10;;;;;;;4.52;46.98;101074.97;1749986;80;20994;-56
2022/02/27 08:38:16;;;;;;;0.37;0.10;;;;;;;4.52;47.08;101074.97;1761751;79;21113;-56
2022/02/27 08:40:42;;;;;;;0.97;0.10;;;;;;;4.54;46.70;101075.86;1764331;79;21417;-55
2022/02/27 08:43:09;;;;;;;1.90;0.10;;;;;;;4.55;46.75;101070.08;1768211;79;22499;-57
2022/02/27 08:45:35;;;;;;;0.30;0.10;;;;;;;4.56;46.31;101068.75;1763053;79;21430;-56
2022/02/27 08:48:02;;;;;;;0.33;0.10;;;;;;;4.55;46.58;101068.30;1764050;79;21025;-56
2022/02/27 08:50:28;;;;;;;0.30;0.20;;;;;;;4.60;45.89;101068.72;1763714;79;21463;-56
2022/02/27 08:52:55;;;;;;;0.50;0.10;;;;;;;4.61;45.49;101070.50;1761229;79;21395;-56
2022/02/27 08:55:22;;;;;;;1.13;0.17;;;;;;;4.56;44.89;101070.08;1766267;79;21064;-56
2022/02/27 08:57:49;;;;;;;0.30;0.10;;;;;;;4.52;45.57;101066.97;1743720;79;21211;-56
2022/02/27 09:00:17;;;;;;;0.47;0.20;;;;;;;4.50;45.33;101068.78;1740258;81;21397;-55
2022/02/27 09:02:44;;;;;;;1.17;0.10;;;;;;;4.50;44.91;101055.45;1758425;80;20901;-55
2022/02/27 09:05:11;;;;;;;0.47;0.10;;;;;;;4.48;44.81;101057.22;1738101;81;20898;-57
2022/02/27 09:07:39;;;;;;;0.87;0.10;;;;;;;4.50;45.03;101052.78;1739595;81;20970;-56
2022/02/27 09:10:08;;;;;;;0.40;0.10;;;;;;;4.55;44.90;101054.97;1738617;81;21114;-56
2022/02/27 09:12:35;;;;;;;0.30;0.10;;;;;;;4.66;45.06;101047.39;1738094;81;20879;-56
2022/02/27 09:15:02;;;;;;;0.50;0.20;;;;;;;4.78;44.73;101043.31;1733639;81;21104;-56
2022/02/27 09:17:28;;;;;;;0.97;0.10;;;;;;;4.89;44.39;101047.72;1734854;81;21264;-56
2022/02/27 09:19:55;;;;;;;1.57;0.20;;;;;;;4.98;43.36;101040.56;1733926;81;21162;-57
2022/02/27 09:22:21;;;;;;;0.50;0.20;;;;;;;5.05;42.74;101038.30;1733541;81;21025;-56
2022/02/27 09:24:47;;;;;;;1.00;0.17;;;;;;;5.14;42.85;101044.92;1733150;81;21654;-57
2022/02/27 09:27:14;;;;;;;0.50;0.20;;;;;;;5.16;42.66;101043.14;1735696;81;21617;-56
2022/02/27 09:29:40;;;;;;;0.87;0.20;;;;;;;5.18;43.57;101046.70;1736068;81;20929;-56
2022/02/27 09:32:07;;;;;;;0.50;0.20;;;;;;;5.17;43.00;101048.48;1739995;81;20922;-57
2022/02/27 09:34:34;;;;;;;1.00;0.20;;;;;;;5.12;42.69;101046.27;1737211;81;21051;-57
2022/02/27 09:37:00;;;;;;;1.73;0.20;;;;;;;5.05;42.79;101044.53;1738260;80;20977;-57
2022/02/27 09:39:29;;;;;;;0.50;0.10;;;;;;;5.03;43.37;101048.09;1735977;81;20993;-57
2022/02/27 09:41:55;;;;;;;0.77;0.20;;;;;;;5.04;43.09;101044.08;1742382;81;20926;-56
2022/02/27 09:44:21;;;;;;;0.70;0.10;;;;;;;5.06;43.19;101044.08;1742387;81;20926;-57
2022/02/27 09:46:48;;;;;;;0.60;0.20;;;;;;;5.09;43.42;101046.75;1737258;81;21785;-57
2022/02/27 09:49:14;;;;;;;0.10;0.10;;;;;;;5.08;42.71;101042.30;1738796;80;20966;-57
2022/02/27 09:51:41;;;;;;;0.40;0.20;;;;;;;5.05;43.21;101040.52;1736679;81;21096;-57
2022/02/27 09:54:13;;;;;;;0.20;0.10;;;;;;;5.04;43.18;101051.20;1734279;81;21076;-58
2022/02/27 09:56:38;;;;;;;0.40;0.10;;;;;;;5.04;43.46;101040.53;1735617;81;21438;-57
2022/02/27 09:59:05;;;;;;;0.20;0.10;;;;;;;5.06;43.35;101040.08;1736865;81;21664;-57
2022/02/27 10:01:31;;;;;;;0.20;0.10;;;;;;;5.08;42.90;101035.62;1731235;81;21033;-56
2022/02/27 10:04:00;;;;;;;2.20;0.40;;;;;;;5.12;42.73;101040.92;1735271;81;21127;-57
2022/02/27 10:06:25;;;;;;;2.47;0.10;;;;;;;5.17;42.51;101031.13;1715724;81;21163;-57
2022/02/27 10:08:56;;;;;;;1.53;0.10;;;;;;;5.25;42.28;101030.63;1736576;81;21149;-57
2022/02/27 10:11:22;;;;;;;0.37;0.10;;;;;;;5.32;42.04;101017.67;1734960;79;21146;-58
2022/02/27 10:13:52;;;;;;;0.33;0.17;;;;;;;5.39;41.91;101018.52;1734504;81;21049;-56
2022/02/27 10:16:21;;;;;;;0.40;0.20;;;;;;;5.46;41.98;101018.90;1737099;81;21052;-55
2022/02/27 10:18:51;;;;;;;0.80;0.10;;;;;;;5.55;42.02;101018.83;1734631;81;21223;-55
2022/02/27 10:21:31;;;;;;;0.47;0.10;;;;;;;5.66;40.75;101024.09;1735429;80;21014;-56
2022/02/27 10:24:05;;;;;;;0.70;0.10;;;;;;;5.69;40.21;101012.06;1734304;81;21136;-56
2022/02/27 10:26:35;;;;;;;0.85;0.05;;;;;;;5.70;40.51;101006.68;1737548;81;21132;-56
2022/02/27 10:29:11;;;;;;;0.60;0.20;;;;;;;5.73;40.50;101008.45;1736469;81;21071;-57
2022/02/27 10:31:44;;;;;;;0.30;0.20;;;;;;;5.80;40.13;101004.81;1733996;81;22228;-56
2022/02/27 10:34:25;;;;;;;0.47;0.20;;;;;;;5.82;39.87;101008.37;1736506;81;20985;-56
2022/02/27 10:36:56;;;;;;;0.30;0.10;;;;;;;5.86;38.92;101007.91;1736127;81;21134;-56
2022/02/27 10:39:46;;;;;;;0.50;0.10;;;;;;;5.90;40.26;101009.22;1736666;81;21053;-57
2022/02/27 10:42:29;;;;;;;0.20;0.10;;;;;;;5.96;39.50;101002.91;1732263;81;21523;-56
2022/02/27 10:45:02;;;;;;;0.47;0.10;;;;;;;5.97;39.95;101003.36;1734474;80;21610;-56
2022/02/27 10:47:38;;;;;;;0.37;0.10;;;;;;;5.97;39.10;101005.58;1740419;81;21005;-57
2022/02/27 10:50:14;;;;;;;1.33;0.10;;;;;;;5.92;39.29;101002.53;1736460;81;21645;-57
2022/02/27 10:52:46;;;;;;;0.40;0.00;;;;;;;5.85;39.55;101003.01;1734660;81;21108;-57
2022/02/27 10:55:10;;;;;;;0.30;0.10;;;;;;;5.77;38.57;101007.98;1731873;81;21447;-56
2022/02/27 10:57:39;;;;;;;0.30;0.10;;;;;;;5.68;39.42;101008.95;1733705;81;21036;-57
2022/02/27 11:00:27;;;;;;;0.30;0.10;;;;;;;5.64;39.78;101007.19;1735162;81;21132;-57
2022/02/27 11:03:08;;;;;;;1.23;0.10;;;;;;;5.58;39.05;101009.91;1736819;81;22035;-56
2022/02/27 11:05:39;;;;;;;0.40;0.10;;;;;;;5.49;39.69;101002.86;1740024;81;20965;-57
2022/02/27 11:08:08;;;;;;;0.23;0.10;;;;;;;5.49;38.84;101001.97;1733441;81;21025;-57
2022/02/27 11:10:38;;;;;;;0.10;0.10;;;;;;;5.43;38.78;101003.36;1733910;81;22401;-57
2022/02/27 11:13:09;;;;;;;0.20;0.10;;;;;;;5.40;39.22;100998.03;1733249;81;21167;-58
2022/02/27 11:15:36;;;;;;;0.33;0.10;;;;;;;5.40;39.10;100992.70;1733600;81;21076;-57
2022/02/27 11:18:04;;;;;;;0.20;0.10;;;;;;;5.40;39.28;100996.25;1762697;80;21433;-57
2022/02/27 11:20:30;;;;;;;1.10;0.17;;;;;;;5.40;39.16;100992.25;1738919;81;21052;-57
2022/02/27 11:22:57;;;;;;;0.80;0.10;;;;;;;5.42;39.08;100996.25;1743793;81;21072;-57
2022/02/27 11:25:25;;;;;;;0.30;0.10;;;;;;;5.39;38.89;100990.47;1736819;81;20961;-57
2022/02/27 11:27:53;;;;;;;1.03;0.10;;;;;;;5.40;38.94;101002.05;1759894;80;22501;-57
2022/02/27 11:30:25;;;;;;;0.80;0.20;;;;;;;5.41;38.33;100990.47;1736902;81;21671;-57
2022/02/27 11:32:55;;;;;;;0.63;0.10;;;;;;;5.42;38.55;100990.46;1763388;80;21052;-57
2022/02/27 11:35:37;;;;;;;1.67;0.10;;;;;;;5.46;38.85;100985.97;1762198;80;21182;-57